sensor_id;sensor_type;location;lat;lon;timestamp;P1;durP1;ratioP1;P2;durP2;ratioP2
23336;SDS011;11840;45.414;12.372;2023-05-07T06:07:27;0.22;;;0.20;;
23336;SDS011;11840;45.414;12.372;2023-05-07T06:09:54;0.30;;;0.28;;
23336;SDS011;11840;45.414;12.372;2023-05-07T06:12:20;0.20;;;0.10;;
23336;SDS011;11840;45.414;12.372;2023-05-07T06:14:47;0.85;;;0.30;;
23336;SDS011;11840;45.414;12.372;2023-05-07T06:17:13;0.35;;;0.28;;
23336;SDS011;11840;45.414;12.372;2023-05-07T06:19:39;0.35;;;0.30;;
23336;SDS011;11840;45.414;12.372;2023-05-07T06:22:05;0.65;;;0.25;;
23336;SDS011;11840;45.414;12.372;2023-05-07T06:24:32;0.93;;;0.52;;
23336;SDS011;11840;45.414;12.372;2023-05-07T06:26:58;0.25;;;0.17;;
23336;SDS011;11840;45.414;12.372;2023-05-07T06:29:25;0.38;;;0.20;;
23336;SDS011;11840;45.414;12.372;2023-05-07T06:31:55;0.20;;;0.20;;
23336;SDS011;11840;45.414;12.372;2023-05-07T06:34:22;0.60;;;0.25;;
23336;SDS011;11840;45.414;12.372;2023-05-07T06:36:48;0.15;;;0.13;;
23336;SDS011;11840;45.414;12.372;2023-05-07T06:39:24;0.30;;;0.30;;
23336;SDS011;11840;45.414;12.372;2023-05-07T06:41:51;0.28;;;0.20;;
23336;SDS011;11840;45.414;12.372;2023-05-07T06:44:24;0.30;;;0.20;;
23336;SDS011;11840;45.414;12.372;2023-05-07T06:47:07;1.55;;;0.73;;
23336;SDS011;11840;45.414;12.372;2023-05-07T06:49:33;0.05;;;0.05;;
23336;SDS011;11840;45.414;12.372;2023-05-07T06:51:59;0.55;;;0.43;;
23336;SDS011;11840;45.414;12.372;2023-05-07T06:54:24;0.65;;;0.47;;
23336;SDS011;11840;45.414;12.372;2023-05-07T06:56:51;0.20;;;0.20;;
23336;SDS011;11840;45.414;12.372;2023-05-07T06:59:16;0.45;;;0.20;;
23336;SDS011;11840;45.414;12.372;2023-05-07T07:01:42;0.45;;;0.30;;
23336;SDS011;11840;45.414;12.372;2023-05-07T07:04:10;1.08;;;0.32;;
23336;SDS011;11840;45.414;12.372;2023-05-07T07:06:38;0.98;;;0.32;;
23336;SDS011;11840;45.414;12.372;2023-05-07T07:09:08;0.30;;;0.30;;
23336;SDS011;11840;45.414;12.372;2023-05-07T07:11:34;0.52;;;0.30;;
23336;SDS011;11840;45.414;12.372;2023-05-07T07:14:00;0.55;;;0.30;;
23336;SDS011;11840;45.414;12.372;2023-05-07T07:16:27;0.47;;;0.30;;
23336;SDS011;11840;45.414;12.372;2023-05-07T07:18:53;0.52;;;0.38;;
23336;SDS011;11840;45.414;12.372;2023-05-07T07:21:19;0.30;;;0.20;;
23336;SDS011;11840;45.414;12.372;2023-05-07T07:23:45;0.32;;;0.25;;
23336;SDS011;11840;45.414;12.372;2023-05-07T07:26:11;1.02;;;0.40;;
23336;SDS011;11840;45.414;12.372;2023-05-07T07:28:44;0.43;;;0.30;;
23336;SDS011;11840;45.414;12.372;2023-05-07T07:31:09;0.50;;;0.22;;
23336;SDS011;11840;45.414;12.372;2023-05-07T07:33:36;1.00;;;0.70;;
23336;SDS011;11840;45.414;12.372;2023-05-07T07:36:02;0.40;;;0.40;;
23336;SDS011;11840;45.414;12.372;2023-05-07T07:38:28;1.35;;;0.70;;
23336;SDS011;11840;45.414;12.372;2023-05-07T07:40:54;3.92;;;1.00;;
23336;SDS011;11840;45.414;12.372;2023-05-07T07:43:22;1.05;;;0.63;;
23336;SDS011;11840;45.414;12.372;2023-05-07T07:45:48;1.52;;;0.70;;
23336;SDS011;11840;45.414;12.372;2023-05-07T07:48:14;2.55;;;0.93;;
23336;SDS011;11840;45.414;12.372;2023-05-07T07:50:39;1.48;;;0.60;;
23336;SDS011;11840;45.414;12.372;2023-05-07T07:53:07;2.38;;;0.88;;
23336;SDS011;11840;45.414;12.372;2023-05-07T07:55:37;3.25;;;1.48;;
23336;SDS011;11840;45.414;12.372;2023-05-07T07:58:03;2.70;;;1.13;;
23336;SDS011;11840;45.414;12.372;2023-05-07T08:00:29;2.17;;;1.33;;
23336;SDS011;11840;45.414;12.372;2023-05-07T08:02:55;3.10;;;1.60;;
23336;SDS011;11840;45.414;12.372;2023-05-07T08:05:26;2.35;;;1.30;;
23336;SDS011;11840;45.414;12.372;2023-05-07T08:07:53;3.47;;;1.35;;
23336;SDS011;11840;45.414;12.372;2023-05-07T08:10:23;2.03;;;1.00;;
23336;SDS011;11840;45.414;12.372;2023-05-07T08:12:54;2.90;;;1.40;;
23336;SDS011;11840;45.414;12.372;2023-05-07T08:15:20;2.65;;;1.25;;
23336;SDS011;11840;45.414;12.372;2023-05-07T08:17:46;1.98;;;1.13;;
23336;SDS011;11840;45.414;12.372;2023-05-07T08:20:13;2.97;;;1.50;;
23336;SDS011;11840;45.414;12.372;2023-05-07T08:22:39;3.53;;;1.58;;
23336;SDS011;11840;45.414;12.372;2023-05-07T08:25:06;2.65;;;1.58;;
23336;SDS011;11840;45.414;12.372;2023-05-07T08:27:32;4.60;;;1.95;;
23336;SDS011;11840;45.414;12.372;2023-05-07T08:29:58;3.13;;;1.27;;
23336;SDS011;11840;45.414;12.372;2023-05-07T08:32:24;1.70;;;1.10;;
23336;SDS011;11840;45.414;12.372;2023-05-07T08:34:50;1.77;;;0.80;;
23336;SDS011;11840;45.414;12.372;2023-05-07T08:37:16;1.98;;;1.00;;
23336;SDS011;11840;45.414;12.372;2023-05-07T08:39:43;1.05;;;0.60;;
23336;SDS011;11840;45.414;12.372;2023-05-07T08:42:16;1.73;;;0.60;;
23336;SDS011;11840;45.414;12.372;2023-05-07T08:44:42;2.15;;;0.90;;
23336;SDS011;11840;45.414;12.372;2023-05-07T08:47:10;2.45;;;1.02;;
23336;SDS011;11840;45.414;12.372;2023-05-07T08:49:36;1.88;;;0.85;;
23336;SDS011;11840;45.414;12.372;2023-05-07T08:52:03;1.77;;;0.95;;
23336;SDS011;11840;45.414;12.372;2023-05-07T08:54:29;2.50;;;1.20;;
23336;SDS011;11840;45.414;12.372;2023-05-07T08:56:56;2.80;;;1.55;;
23336;SDS011;11840;45.414;12.372;2023-05-07T08:59:22;2.92;;;1.52;;
23336;SDS011;11840;45.414;12.372;2023-05-07T09:01:48;2.45;;;1.15;;
23336;SDS011;11840;45.414;12.372;2023-05-07T09:04:15;3.13;;;1.23;;
23336;SDS011;11840;45.414;12.372;2023-05-07T09:06:41;2.80;;;1.15;;
23336;SDS011;11840;45.414;12.372;2023-05-07T09:09:09;3.47;;;1.40;;
23336;SDS011;11840;45.414;12.372;2023-05-07T09:11:34;2.40;;;1.30;;
23336;SDS011;11840;45.414;12.372;2023-05-07T09:14:01;2.55;;;1.50;;
23336;SDS011;11840;45.414;12.372;2023-05-07T09:16:31;2.30;;;1.20;;
23336;SDS011;11840;45.414;12.372;2023-05-07T09:18:59;2.55;;;1.50;;
23336;SDS011;11840;45.414;12.372;2023-05-07T09:21:25;3.13;;;1.50;;
23336;SDS011;11840;45.414;12.372;2023-05-07T09:23:54;2.40;;;1.50;;
23336;SDS011;11840;45.414;12.372;2023-05-07T09:26:22;3.08;;;1.40;;
23336;SDS011;11840;45.414;12.372;2023-05-07T09:28:48;2.33;;;1.27;;
23336;SDS011;11840;45.414;12.372;2023-05-07T09:31:14;3.58;;;1.55;;
23336;SDS011;11840;45.414;12.372;2023-05-07T09:33:40;2.38;;;1.30;;
23336;SDS011;11840;45.414;12.372;2023-05-07T09:36:08;2.50;;;1.20;;
23336;SDS011;11840;45.414;12.372;2023-05-07T09:38:37;2.47;;;1.27;;
23336;SDS011;11840;45.414;12.372;2023-05-07T09:43:31;3.80;;;1.58;;
23336;SDS011;11840;45.414;12.372;2023-05-07T09:45:58;3.13;;;1.48;;
23336;SDS011;11840;45.414;12.372;2023-05-07T09:48:26;2.40;;;1.20;;
23336;SDS011;11840;45.414;12.372;2023-05-07T09:50:55;3.63;;;1.23;;
23336;SDS011;11840;45.414;12.372;2023-05-07T09:53:26;2.83;;;1.65;;
23336;SDS011;11840;45.414;12.372;2023-05-07T09:55:54;2.40;;;1.10;;
23336;SDS011;11840;45.414;12.372;2023-05-07T09:58:20;2.22;;;0.98;;
23336;SDS011;11840;45.414;12.372;2023-05-07T10:00:48;2.85;;;1.42;;
23336;SDS011;11840;45.414;12.372;2023-05-07T10:03:15;2.33;;;1.40;;
23336;SDS011;11840;45.414;12.372;2023-05-07T10:05:49;2.40;;;1.30;;
23336;SDS011;11840;45.414;12.372;2023-05-07T10:08:17;2.50;;;1.40;;
23336;SDS011;11840;45.414;12.372;2023-05-07T10:10:46;3.83;;;1.60;;
23336;SDS011;11840;45.414;12.372;2023-05-07T10:13:18;2.13;;;1.20;;
23336;SDS011;11840;45.414;12.372;2023-05-07T10:15:46;2.63;;;1.35;;
23336;SDS011;11840;45.414;12.372;2023-05-07T10:18:13;3.58;;;1.58;;
23336;SDS011;11840;45.414;12.372;2023-05-07T10:20:40;3.05;;;1.35;;
23336;SDS011;11840;45.414;12.372;2023-05-07T10:23:09;2.50;;;1.33;;
23336;SDS011;11840;45.414;12.372;2023-05-07T10:25:41;1.87;;;0.93;;
23336;SDS011;11840;45.414;12.372;2023-05-07T10:28:15;2.60;;;1.50;;
23336;SDS011;11840;45.414;12.372;2023-05-07T10:33:22;2.10;;;0.98;;
23336;SDS011;11840;45.414;12.372;2023-05-07T10:35:49;3.55;;;1.50;;
23336;SDS011;11840;45.414;12.372;2023-05-07T10:38:16;2.45;;;1.20;;
23336;SDS011;11840;45.414;12.372;2023-05-07T10:40:44;2.33;;;1.35;;
23336;SDS011;11840;45.414;12.372;2023-05-07T10:43:10;2.30;;;1.05;;
23336;SDS011;11840;45.414;12.372;2023-05-07T10:46:13;2.25;;;1.17;;
23336;SDS011;11840;45.414;12.372;2023-05-07T10:51:45;1.27;;;0.85;;
23336;SDS011;11840;45.414;12.372;2023-05-07T10:54:31;1.58;;;1.05;;
23336;SDS011;11840;45.414;12.372;2023-05-07T10:59:50;1.50;;;0.80;;
23336;SDS011;11840;45.414;12.372;2023-05-07T11:05:19;1.45;;;1.00;;
23336;SDS011;11840;45.414;12.372;2023-05-07T11:07:53;2.42;;;0.85;;
23336;SDS011;11840;45.414;12.372;2023-05-07T11:10:19;2.00;;;1.05;;
23336;SDS011;11840;45.414;12.372;2023-05-07T11:12:57;1.92;;;1.00;;
23336;SDS011;11840;45.414;12.372;2023-05-07T11:15:33;1.35;;;0.70;;
23336;SDS011;11840;45.414;12.372;2023-05-07T11:18:02;1.42;;;0.80;;
23336;SDS011;11840;45.414;12.372;2023-05-07T11:20:50;1.20;;;0.70;;
23336;SDS011;11840;45.414;12.372;2023-05-07T11:26:21;1.52;;;0.82;;
23336;SDS011;11840;45.414;12.372;2023-05-07T11:28:47;4.80;;;0.93;;
23336;SDS011;11840;45.414;12.372;2023-05-07T11:31:14;2.25;;;0.85;;
23336;SDS011;11840;45.414;12.372;2023-05-07T11:33:45;0.85;;;0.60;;
23336;SDS011;11840;45.414;12.372;2023-05-07T11:36:15;1.10;;;0.75;;
23336;SDS011;11840;45.414;12.372;2023-05-07T11:38:46;2.35;;;0.93;;
23336;SDS011;11840;45.414;12.372;2023-05-07T11:41:17;0.50;;;0.40;;
23336;SDS011;11840;45.414;12.372;2023-05-07T11:43:57;1.05;;;0.65;;
23336;SDS011;11840;45.414;12.372;2023-05-07T11:46:23;2.17;;;0.73;;
23336;SDS011;11840;45.414;12.372;2023-05-07T11:48:49;2.85;;;0.60;;
23336;SDS011;11840;45.414;12.372;2023-05-07T11:51:18;1.42;;;0.63;;
23336;SDS011;11840;45.414;12.372;2023-05-07T11:53:44;0.73;;;0.68;;
23336;SDS011;11840;45.414;12.372;2023-05-07T11:56:14;1.25;;;0.80;;
23336;SDS011;11840;45.414;12.372;2023-05-07T11:58:40;1.10;;;0.77;;
23336;SDS011;11840;45.414;12.372;2023-05-07T12:01:10;1.10;;;0.70;;
23336;SDS011;11840;45.414;12.372;2023-05-07T12:03:36;0.95;;;0.50;;
23336;SDS011;11840;45.414;12.372;2023-05-07T12:06:05;1.83;;;0.70;;
23336;SDS011;11840;45.414;12.372;2023-05-07T12:08:31;1.23;;;0.63;;
23336;SDS011;11840;45.414;12.372;2023-05-07T12:10:57;1.08;;;0.63;;
23336;SDS011;11840;45.414;12.372;2023-05-07T12:13:23;1.08;;;0.70;;
23336;SDS011;11840;45.414;12.372;2023-05-07T12:15:50;1.17;;;0.80;;
23336;SDS011;11840;45.414;12.372;2023-05-07T12:18:16;1.27;;;0.73;;
23336;SDS011;11840;45.414;12.372;2023-05-07T12:20:42;1.38;;;0.65;;
23336;SDS011;11840;45.414;12.372;2023-05-07T12:23:08;1.17;;;0.63;;
23336;SDS011;11840;45.414;12.372;2023-05-07T12:25:35;1.25;;;0.70;;
23336;SDS011;11840;45.414;12.372;2023-05-07T12:28:04;1.05;;;0.52;;
23336;SDS011;11840;45.414;12.372;2023-05-07T12:30:36;1.15;;;0.70;;
23336;SDS011;11840;45.414;12.372;2023-05-07T12:33:02;1.77;;;0.75;;
23336;SDS011;11840;45.414;12.372;2023-05-07T12:35:36;1.73;;;0.80;;
23336;SDS011;11840;45.414;12.372;2023-05-07T12:38:02;1.08;;;0.75;;
23336;SDS011;11840;45.414;12.372;2023-05-07T12:40:36;1.30;;;0.63;;
23336;SDS011;11840;45.414;12.372;2023-05-07T12:43:03;1.55;;;0.80;;
23336;SDS011;11840;45.414;12.372;2023-05-07T12:45:28;1.35;;;0.73;;
23336;SDS011;11840;45.414;12.372;2023-05-07T12:47:55;1.13;;;0.60;;
23336;SDS011;11840;45.414;12.372;2023-05-07T12:50:22;1.23;;;0.77;;
23336;SDS011;11840;45.414;12.372;2023-05-07T12:52:48;1.80;;;0.85;;
23336;SDS011;11840;45.414;12.372;2023-05-07T12:55:14;0.82;;;0.55;;
23336;SDS011;11840;45.414;12.372;2023-05-07T12:57:41;1.00;;;0.57;;
23336;SDS011;11840;45.414;12.372;2023-05-07T13:00:08;1.33;;;0.73;;
23336;SDS011;11840;45.414;12.372;2023-05-07T13:02:38;1.15;;;0.63;;
23336;SDS011;11840;45.414;12.372;2023-05-07T13:05:04;2.33;;;0.75;;
23336;SDS011;11840;45.414;12.372;2023-05-07T13:07:30;1.60;;;0.60;;
23336;SDS011;11840;45.414;12.372;2023-05-07T13:09:56;0.90;;;0.63;;
23336;SDS011;11840;45.414;12.372;2023-05-07T13:12:23;1.27;;;0.63;;
23336;SDS011;11840;45.414;12.372;2023-05-07T13:14:49;0.98;;;0.60;;
23336;SDS011;11840;45.414;12.372;2023-05-07T13:17:15;1.02;;;0.70;;
23336;SDS011;11840;45.414;12.372;2023-05-07T13:19:41;1.00;;;0.70;;
23336;SDS011;11840;45.414;12.372;2023-05-07T13:22:07;1.92;;;0.75;;
23336;SDS011;11840;45.414;12.372;2023-05-07T13:24:33;1.35;;;0.90;;
23336;SDS011;11840;45.414;12.372;2023-05-07T13:26:59;1.20;;;0.82;;
23336;SDS011;11840;45.414;12.372;2023-05-07T13:29:26;1.23;;;0.77;;
23336;SDS011;11840;45.414;12.372;2023-05-07T13:31:56;1.20;;;0.65;;
23336;SDS011;11840;45.414;12.372;2023-05-07T13:34:21;1.85;;;0.88;;
23336;SDS011;11840;45.414;12.372;2023-05-07T13:36:47;1.17;;;0.60;;
23336;SDS011;11840;45.414;12.372;2023-05-07T13:39:13;2.15;;;1.02;;
23336;SDS011;11840;45.414;12.372;2023-05-07T13:41:40;1.10;;;0.77;;
23336;SDS011;11840;45.414;12.372;2023-05-07T13:44:05;0.95;;;0.60;;
23336;SDS011;11840;45.414;12.372;2023-05-07T13:46:30;0.95;;;0.50;;
23336;SDS011;11840;45.414;12.372;2023-05-07T13:48:56;1.23;;;0.70;;
23336;SDS011;11840;45.414;12.372;2023-05-07T13:51:22;1.98;;;1.02;;
23336;SDS011;11840;45.414;12.372;2023-05-07T13:53:48;1.33;;;0.82;;
23336;SDS011;11840;45.414;12.372;2023-05-07T13:56:14;0.68;;;0.50;;
23336;SDS011;11840;45.414;12.372;2023-05-07T13:58:40;1.45;;;0.77;;
23336;SDS011;11840;45.414;12.372;2023-05-07T14:01:06;1.00;;;0.68;;
23336;SDS011;11840;45.414;12.372;2023-05-07T14:03:31;1.27;;;0.77;;
23336;SDS011;11840;45.414;12.372;2023-05-07T14:05:59;1.35;;;0.77;;
23336;SDS011;11840;45.414;12.372;2023-05-07T14:08:27;1.15;;;0.65;;
23336;SDS011;11840;45.414;12.372;2023-05-07T14:10:53;1.65;;;0.70;;
23336;SDS011;11840;45.414;12.372;2023-05-07T14:13:19;1.35;;;0.80;;
23336;SDS011;11840;45.414;12.372;2023-05-07T14:15:45;0.68;;;0.43;;
23336;SDS011;11840;45.414;12.372;2023-05-07T14:18:12;2.05;;;0.98;;
23336;SDS011;11840;45.414;12.372;2023-05-07T14:20:38;1.48;;;0.90;;
23336;SDS011;11840;45.414;12.372;2023-05-07T14:23:04;1.90;;;0.90;;
23336;SDS011;11840;45.414;12.372;2023-05-07T14:25:30;1.42;;;0.70;;
23336;SDS011;11840;45.414;12.372;2023-05-07T14:27:56;1.08;;;0.70;;
23336;SDS011;11840;45.414;12.372;2023-05-07T14:30:22;1.73;;;0.85;;
23336;SDS011;11840;45.414;12.372;2023-05-07T14:32:49;1.98;;;1.05;;
23336;SDS011;11840;45.414;12.372;2023-05-07T14:35:15;1.42;;;0.73;;
23336;SDS011;11840;45.414;12.372;2023-05-07T14:37:41;2.15;;;1.02;;
23336;SDS011;11840;45.414;12.372;2023-05-07T14:40:07;2.05;;;0.77;;
23336;SDS011;11840;45.414;12.372;2023-05-07T14:42:33;2.13;;;0.95;;
23336;SDS011;11840;45.414;12.372;2023-05-07T14:44:59;1.92;;;0.80;;
23336;SDS011;11840;45.414;12.372;2023-05-07T14:47:25;1.38;;;0.82;;
23336;SDS011;11840;45.414;12.372;2023-05-07T14:49:52;1.48;;;0.90;;
23336;SDS011;11840;45.414;12.372;2023-05-07T14:52:18;1.73;;;1.00;;
23336;SDS011;11840;45.414;12.372;2023-05-07T14:54:43;1.45;;;0.88;;
23336;SDS011;11840;45.414;12.372;2023-05-07T14:57:10;1.17;;;0.70;;
23336;SDS011;11840;45.414;12.372;2023-05-07T14:59:38;1.77;;;0.90;;
23336;SDS011;11840;45.414;12.372;2023-05-07T15:02:05;1.20;;;0.77;;
23336;SDS011;11840;45.414;12.372;2023-05-07T15:04:32;1.02;;;0.70;;
23336;SDS011;11840;45.414;12.372;2023-05-07T15:06:58;1.52;;;0.82;;
23336;SDS011;11840;45.414;12.372;2023-05-07T15:09:25;2.55;;;1.05;;
23336;SDS011;11840;45.414;12.372;2023-05-07T15:11:50;3.33;;;1.58;;
23336;SDS011;11840;45.414;12.372;2023-05-07T15:14:16;1.70;;;1.00;;
23336;SDS011;11840;45.414;12.372;2023-05-07T15:16:42;2.15;;;1.10;;
23336;SDS011;11840;45.414;12.372;2023-05-07T15:19:08;1.85;;;1.08;;
23336;SDS011;11840;45.414;12.372;2023-05-07T15:21:33;2.10;;;1.17;;
23336;SDS011;11840;45.414;12.372;2023-05-07T15:24:01;2.40;;;0.90;;
23336;SDS011;11840;45.414;12.372;2023-05-07T15:26:27;2.50;;;1.30;;
23336;SDS011;11840;45.414;12.372;2023-05-07T15:28:53;1.98;;;0.90;;
23336;SDS011;11840;45.414;12.372;2023-05-07T15:31:21;2.72;;;1.20;;
23336;SDS011;11840;45.414;12.372;2023-05-07T15:33:47;2.90;;;1.08;;
23336;SDS011;11840;45.414;12.372;2023-05-07T15:36:14;2.08;;;1.10;;
23336;SDS011;11840;45.414;12.372;2023-05-07T15:38:39;2.45;;;1.10;;
23336;SDS011;11840;45.414;12.372;2023-05-07T15:41:05;2.10;;;1.13;;
23336;SDS011;11840;45.414;12.372;2023-05-07T15:43:31;2.05;;;1.27;;
23336;SDS011;11840;45.414;12.372;2023-05-07T15:45:57;1.25;;;0.82;;
23336;SDS011;11840;45.414;12.372;2023-05-07T15:48:22;2.53;;;1.08;;
23336;SDS011;11840;45.414;12.372;2023-05-07T15:50:48;3.00;;;1.20;;
23336;SDS011;11840;45.414;12.372;2023-05-07T15:53:13;2.28;;;1.27;;
23336;SDS011;11840;45.414;12.372;2023-05-07T15:55:40;3.40;;;1.42;;
23336;SDS011;11840;45.414;12.372;2023-05-07T15:58:07;1.58;;;0.85;;
23336;SDS011;11840;45.414;12.372;2023-05-07T16:00:33;2.10;;;1.15;;
23336;SDS011;11840;45.414;12.372;2023-05-07T16:03:00;2.38;;;1.20;;
23336;SDS011;11840;45.414;12.372;2023-05-07T16:05:27;1.38;;;0.90;;
23336;SDS011;11840;45.414;12.372;2023-05-07T16:07:53;2.35;;;1.33;;
23336;SDS011;11840;45.414;12.372;2023-05-07T16:10:19;2.53;;;1.20;;
23336;SDS011;11840;45.414;12.372;2023-05-07T16:12:44;1.92;;;0.90;;
23336;SDS011;11840;45.414;12.372;2023-05-07T16:15:10;3.17;;;1.40;;
23336;SDS011;11840;45.414;12.372;2023-05-07T16:17:36;1.25;;;0.90;;
23336;SDS011;11840;45.414;12.372;2023-05-07T16:20:02;2.63;;;1.40;;
23336;SDS011;11840;45.414;12.372;2023-05-07T16:22:31;1.75;;;0.98;;
23336;SDS011;11840;45.414;12.372;2023-05-07T16:24:57;1.65;;;1.10;;
23336;SDS011;11840;45.414;12.372;2023-05-07T16:27:22;2.33;;;0.98;;
23336;SDS011;11840;45.414;12.372;2023-05-07T16:29:49;2.08;;;0.88;;
23336;SDS011;11840;45.414;12.372;2023-05-07T16:32:14;2.20;;;1.20;;
23336;SDS011;11840;45.414;12.372;2023-05-07T16:34:40;2.92;;;1.30;;
23336;SDS011;11840;45.414;12.372;2023-05-07T16:37:06;1.98;;;1.15;;
23336;SDS011;11840;45.414;12.372;2023-05-07T16:39:31;1.45;;;0.80;;
23336;SDS011;11840;45.414;12.372;2023-05-07T16:41:57;2.30;;;1.33;;
23336;SDS011;11840;45.414;12.372;2023-05-07T16:44:22;1.70;;;0.85;;
23336;SDS011;11840;45.414;12.372;2023-05-07T16:46:49;2.38;;;1.23;;
23336;SDS011;11840;45.414;12.372;2023-05-07T16:49:14;2.40;;;1.20;;
23336;SDS011;11840;45.414;12.372;2023-05-07T16:51:41;2.47;;;1.42;;
23336;SDS011;11840;45.414;12.372;2023-05-07T16:54:08;2.63;;;1.52;;
23336;SDS011;11840;45.414;12.372;2023-05-07T16:56:34;2.38;;;1.38;;
23336;SDS011;11840;45.414;12.372;2023-05-07T16:59:00;2.13;;;1.08;;
23336;SDS011;11840;45.414;12.372;2023-05-07T17:01:26;1.90;;;1.13;;
23336;SDS011;11840;45.414;12.372;2023-05-07T17:03:52;2.28;;;1.40;;
23336;SDS011;11840;45.414;12.372;2023-05-07T17:06:18;2.40;;;1.30;;
23336;SDS011;11840;45.414;12.372;2023-05-07T17:08:44;1.98;;;1.10;;
23336;SDS011;11840;45.414;12.372;2023-05-07T17:11:10;2.45;;;1.60;;
23336;SDS011;11840;45.414;12.372;2023-05-07T17:13:36;2.10;;;1.10;;
23336;SDS011;11840;45.414;12.372;2023-05-07T17:16:02;2.03;;;1.15;;
23336;SDS011;11840;45.414;12.372;2023-05-07T17:18:28;2.47;;;1.20;;
23336;SDS011;11840;45.414;12.372;2023-05-07T17:20:54;2.20;;;1.20;;
23336;SDS011;11840;45.414;12.372;2023-05-07T17:23:20;2.45;;;1.27;;
23336;SDS011;11840;45.414;12.372;2023-05-07T17:25:45;2.75;;;1.20;;
23336;SDS011;11840;45.414;12.372;2023-05-07T17:28:13;2.28;;;1.20;;
23336;SDS011;11840;45.414;12.372;2023-05-07T17:30:39;3.20;;;1.70;;
23336;SDS011;11840;45.414;12.372;2023-05-07T17:33:05;3.35;;;1.58;;
23336;SDS011;11840;45.414;12.372;2023-05-07T17:35:31;2.33;;;1.33;;
23336;SDS011;11840;45.414;12.372;2023-05-07T17:37:57;2.55;;;1.23;;
23336;SDS011;11840;45.414;12.372;2023-05-07T17:40:23;2.92;;;1.40;;
23336;SDS011;11840;45.414;12.372;2023-05-07T17:42:49;2.30;;;1.23;;
23336;SDS011;11840;45.414;12.372;2023-05-07T17:45:15;2.47;;;1.20;;
23336;SDS011;11840;45.414;12.372;2023-05-07T17:47:41;4.43;;;1.67;;
23336;SDS011;11840;45.414;12.372;2023-05-07T17:50:08;2.88;;;1.77;;
23336;SDS011;11840;45.414;12.372;2023-05-07T17:52:41;2.60;;;1.38;;
23336;SDS011;11840;45.414;12.372;2023-05-07T17:55:07;2.13;;;1.20;;
23336;SDS011;11840;45.414;12.372;2023-05-07T17:57:33;2.45;;;1.40;;
23336;SDS011;11840;45.414;12.372;2023-05-07T18:00:02;3.45;;;1.73;;
23336;SDS011;11840;45.414;12.372;2023-05-07T18:02:31;2.47;;;1.30;;
23336;SDS011;11840;45.414;12.372;2023-05-07T18:04:57;2.17;;;1.25;;
23336;SDS011;11840;45.414;12.372;2023-05-07T18:07:23;2.58;;;1.17;;
23336;SDS011;11840;45.414;12.372;2023-05-07T18:09:49;2.05;;;1.30;;
23336;SDS011;11840;45.414;12.372;2023-05-07T18:12:15;2.55;;;1.10;;
23336;SDS011;11840;45.414;12.372;2023-05-07T18:14:41;2.95;;;1.42;;
23336;SDS011;11840;45.414;12.372;2023-05-07T18:17:07;2.63;;;1.50;;
23336;SDS011;11840;45.414;12.372;2023-05-07T18:19:33;1.75;;;0.98;;
23336;SDS011;11840;45.414;12.372;2023-05-07T18:21:59;1.65;;;1.00;;
23336;SDS011;11840;45.414;12.372;2023-05-07T18:24:25;12.15;;;4.57;;
23336;SDS011;11840;45.414;12.372;2023-05-07T18:26:51;3.53;;;1.85;;
23336;SDS011;11840;45.414;12.372;2023-05-07T18:29:17;2.65;;;1.40;;
23336;SDS011;11840;45.414;12.372;2023-05-07T18:31:43;2.17;;;1.08;;
23336;SDS011;11840;45.414;12.372;2023-05-07T18:34:09;2.25;;;1.30;;
23336;SDS011;11840;45.414;12.372;2023-05-07T18:36:35;1.73;;;1.15;;
23336;SDS011;11840;45.414;12.372;2023-05-07T18:39:01;2.67;;;1.20;;
23336;SDS011;11840;45.414;12.372;2023-05-07T18:41:28;2.75;;;1.17;;
23336;SDS011;11840;45.414;12.372;2023-05-07T18:43:54;1.95;;;1.20;;
23336;SDS011;11840;45.414;12.372;2023-05-07T18:46:20;2.50;;;1.30;;
23336;SDS011;11840;45.414;12.372;2023-05-07T18:48:46;3.17;;;1.52;;
23336;SDS011;11840;45.414;12.372;2023-05-07T18:51:12;2.88;;;1.55;;
23336;SDS011;11840;45.414;12.372;2023-05-07T18:53:38;4.03;;;1.73;;
23336;SDS011;11840;45.414;12.372;2023-05-07T18:56:04;2.70;;;1.25;;
23336;SDS011;11840;45.414;12.372;2023-05-07T18:58:31;3.10;;;1.60;;
23336;SDS011;11840;45.414;12.372;2023-05-07T19:00:59;2.42;;;1.08;;
23336;SDS011;11840;45.414;12.372;2023-05-07T19:03:26;2.55;;;1.23;;
23336;SDS011;11840;45.414;12.372;2023-05-07T19:05:52;2.40;;;1.23;;
23336;SDS011;11840;45.414;12.372;2023-05-07T19:08:18;2.35;;;1.38;;
23336;SDS011;11840;45.414;12.372;2023-05-07T19:10:44;2.35;;;1.15;;
23336;SDS011;11840;45.414;12.372;2023-05-07T19:13:10;2.72;;;1.23;;
23336;SDS011;11840;45.414;12.372;2023-05-07T19:15:36;2.38;;;1.27;;
23336;SDS011;11840;45.414;12.372;2023-05-07T19:18:02;2.30;;;1.02;;
23336;SDS011;11840;45.414;12.372;2023-05-07T19:20:27;1.90;;;1.00;;
23336;SDS011;11840;45.414;12.372;2023-05-07T19:22:53;3.08;;;1.30;;
23336;SDS011;11840;45.414;12.372;2023-05-07T19:25:19;2.25;;;1.10;;
23336;SDS011;11840;45.414;12.372;2023-05-07T19:27:45;4.07;;;1.48;;
23336;SDS011;11840;45.414;12.372;2023-05-07T19:30:12;3.58;;;1.90;;
23336;SDS011;11840;45.414;12.372;2023-05-07T19:32:37;2.13;;;1.00;;
23336;SDS011;11840;45.414;12.372;2023-05-07T19:35:03;2.05;;;1.13;;
23336;SDS011;11840;45.414;12.372;2023-05-07T19:37:31;2.50;;;1.25;;
23336;SDS011;11840;45.414;12.372;2023-05-07T19:39:57;2.40;;;1.50;;
23336;SDS011;11840;45.414;12.372;2023-05-07T19:42:22;2.58;;;1.33;;
23336;SDS011;11840;45.414;12.372;2023-05-07T19:44:49;3.58;;;1.55;;
23336;SDS011;11840;45.414;12.372;2023-05-07T19:47:15;3.22;;;1.67;;
23336;SDS011;11840;45.414;12.372;2023-05-07T19:49:42;2.28;;;1.15;;
23336;SDS011;11840;45.414;12.372;2023-05-07T19:52:08;3.42;;;1.38;;
23336;SDS011;11840;45.414;12.372;2023-05-07T19:54:34;2.17;;;1.25;;
23336;SDS011;11840;45.414;12.372;2023-05-07T19:57:00;3.63;;;1.42;;
23336;SDS011;11840;45.414;12.372;2023-05-07T19:59:26;2.17;;;1.23;;
23336;SDS011;11840;45.414;12.372;2023-05-07T20:01:52;2.33;;;1.42;;
23336;SDS011;11840;45.414;12.372;2023-05-07T20:04:18;3.22;;;1.45;;
23336;SDS011;11840;45.414;12.372;2023-05-07T20:06:44;3.15;;;1.48;;
23336;SDS011;11840;45.414;12.372;2023-05-07T20:09:10;2.50;;;1.60;;
23336;SDS011;11840;45.414;12.372;2023-05-07T20:11:37;2.80;;;1.30;;
23336;SDS011;11840;45.414;12.372;2023-05-07T20:14:04;2.92;;;1.40;;
23336;SDS011;11840;45.414;12.372;2023-05-07T20:16:30;3.17;;;1.20;;
23336;SDS011;11840;45.414;12.372;2023-05-07T20:18:56;2.28;;;1.20;;
23336;SDS011;11840;45.414;12.372;2023-05-07T20:21:23;3.00;;;1.63;;
23336;SDS011;11840;45.414;12.372;2023-05-07T20:23:49;3.35;;;1.20;;
23336;SDS011;11840;45.414;12.372;2023-05-07T20:26:15;2.47;;;1.20;;
23336;SDS011;11840;45.414;12.372;2023-05-07T20:28:40;2.47;;;1.33;;
23336;SDS011;11840;45.414;12.372;2023-05-07T20:31:07;2.92;;;1.35;;
23336;SDS011;11840;45.414;12.372;2023-05-07T20:33:32;2.90;;;1.40;;
23336;SDS011;11840;45.414;12.372;2023-05-07T20:35:58;2.08;;;1.48;;
23336;SDS011;11840;45.414;12.372;2023-05-07T20:38:23;2.35;;;1.38;;
23336;SDS011;11840;45.414;12.372;2023-05-07T20:40:51;3.97;;;1.88;;
23336;SDS011;11840;45.414;12.372;2023-05-07T20:43:17;3.45;;;1.40;;
23336;SDS011;11840;45.414;12.372;2023-05-07T20:45:43;2.28;;;1.30;;
23336;SDS011;11840;45.414;12.372;2023-05-07T20:48:09;2.72;;;1.67;;
23336;SDS011;11840;45.414;12.372;2023-05-07T20:50:35;3.35;;;1.58;;
23336;SDS011;11840;45.414;12.372;2023-05-07T20:53:01;2.35;;;1.27;;
23336;SDS011;11840;45.414;12.372;2023-05-07T20:55:27;3.20;;;1.80;;